Abra Pampa, Argentina
Current Conditions -  °F | °C
As of 3:00 PM on Thursday 30 Oct 2014 (Local Time) from SLTJ Reporting Station
Few Clouds Few Clouds  
Wind Chill: 81°   Ceiling: Unl
Heat Index: 82°   Visibility: 6mi
Dew Point: 63°   Wind: 14mph
Humidity: 54%   Direction: 120°ESE
Pressure: 29.88"   Gusts: NA
Location:  22.82°S, 65.72°W
Report Text: SLTJ 301800Z 12012KT 9999 FEW033 FEW036CB 27/17 Q1012
Loading
Personal Weather Stations






























Interactive Weather Map
Tropical Storm Tracking
New forecast layout! Learn more

10-Day Weather Forecast

Advertisements
Track Severe Weather on mobile